Cannonball, North Dakota
Current Conditions -  °F | °C
As of 7:15 PM on Tuesday 21 Oct 2014 (Local Time) from K7L2 Reporting Station
Clear Clear  
Wind Chill: 72°   Ceiling: Unl
Heat Index: 72°   Visibility: 10mi
Dew Point: 41°   Wind: 20mph
Humidity: 33%   Direction: 150°SSE
Pressure: 29.7"   Gusts: 30mph
Location:  46.3763°N, 100.636°W
Report Text: K7L2 220015Z AUTO 15017G26KT 10SM CLR 22/05 A2970 RMK AO2 PWINO PNO
Loading
Personal Weather Stations






























Interactive Weather Map
Tropical Storm Tracking
New forecast layout! Learn more

10-Day Weather Forecast

Advertisements
Track Severe Weather on mobile